• Join FlightAware (Why Join?)
  • Login
  • US Flag 
05:53AM EDT


 

Airport Tracker/Info


-or-


 

Live Flight TrackerFlight Track Log ✈ GJS3707 ✈ 13-May-2013 ✈ KBOI - KORD

Flight Track Log - Related Links

Times and Time Zones

All times are in EDT time to prevent confusion due to time zone crossing. See the GJS3707 flight status page for this flight to view local times or setup timezone preferences in your user account.

Time Position Orientation Groundspeed Altitude Reporting Facility
EDT Latitude Longitude Course Direction KTS MPH feet Rate Location/Type
03:17PM 43.6456 -116.3189 342° North 234 269 6,700  Level Salt Lake Center
03:18PM 43.6767 -116.2331 63° Northeast 252 290 8,800 1,860 Climbing Salt Lake Center
03:19PM 43.6584 -115.5544 78° East  Level FlightAware Approximate
03:19PM 43.6856 -116.1347 83° East 269 310 10,600  Level Salt Lake Center
03:20PM 43.6772 -115.3844 83° East  Level FlightAware Approximate
03:20PM 43.7025 -116.0003 80° East 321 369 12,000  Level Salt Lake Center
03:21PM 43.7012 -115.2226 81° East  Level FlightAware Approximate
03:21PM 43.7181 -115.8681 81° East 362 417 13,000  Level Salt Lake Center
03:22PM 43.7383 -115.6958 81° East 400 460 14,600 1,560 Climbing Salt Lake Center
03:23PM 43.7556 -115.5428 81° East 418 481 16,300 1,800 Climbing Salt Lake Center
03:24PM 43.7767 -115.3606 81° East 430 495 18,400 1,860 Climbing Salt Lake Center
03:25PM 43.7864 -115.2078 85° East 420 483 20,200 1,560 Climbing Salt Lake Center
03:26PM 43.7986 -115.0619 83° East 402 463 21,700 1,140 Climbing Salt Lake Center
03:27PM 43.8069 -114.8803 86° East 427 491 22,600 720 Climbing Salt Lake Center
03:28PM 43.8175 -114.7150 85° East 449 517 23,300 720 Climbing Salt Lake Center
03:29PM 43.8283 -114.5158 86° East 466 536 24,200 840 Climbing Salt Lake Center
03:30PM 43.8392 -114.3381 85° East 483 556 25,100 960 Climbing Salt Lake Center
03:31PM 43.8511 -114.1297 85° East 486 559 26,200 960 Climbing Salt Lake Center
03:32PM 43.8606 -113.9503 86° East 490 564 27,200 960 Climbing Salt Lake Center
03:33PM 43.8714 -113.7578 85° East 496 571 28,200 960 Climbing Salt Lake Center
03:34PM 43.8811 -113.5469 86° East 491 565 29,200 780 Climbing Salt Lake Center
03:35PM 43.8889 -113.3608 87° East 504 580 29,900 660 Climbing Salt Lake Center
03:36PM 43.8983 -113.1761 86° East 503 579 30,600 720 Climbing Salt Lake Center
03:37PM 43.9069 -112.9586 87° East 507 583 31,500 780 Climbing Salt Lake Center
03:38PM 43.9156 -112.7753 86° East 501 577 32,300 780 Climbing Salt Lake Center
03:40PM 43.9236 -112.5619 87° East 497 572 33,200 780 Climbing Salt Lake Center
03:41PM 43.9314 -112.3797 87° East 496 571 34,000 780 Climbing Salt Lake Center
03:42PM 43.9403 -112.1683 87° East 494 568 34,900 480 Climbing Salt Lake Center
03:43PM 43.9458 -111.9892 87° East 489 563 35,000  Climbing Salt Lake Center
03:44PM 43.9539 -111.7731 87° East 504 580 35,000  Level Salt Lake Center
03:45PM 43.9606 -111.5867 87° East 509 586 35,000  Level Salt Lake Center
03:46PM 43.9678 -111.3683 87° East 510 587 35,000  Level Salt Lake Center
03:47PM 43.9736 -111.1844 87° East 505 581 35,000  Level Salt Lake Center
03:48PM 43.9781 -110.9994 88° East 504 580 35,000  Level Salt Lake Center
03:49PM 43.9856 -110.7819 87° East 506 582 35,000  Level Salt Lake Center
03:50PM 43.9894 -110.5969 88° East 503 579 35,000  Level Salt Lake Center
03:51PM 43.9942 -110.3806 88° East 504 580 35,000  Level Salt Lake Center
03:52PM 43.9989 -110.1933 88° East 506 582 35,000  Level Salt Lake Center
03:53PM 44.0031 -109.9756 88° East 507 583 35,000  Level Salt Lake Center
03:54PM 44.0050 -109.7892 89° East 506 582 35,000  Level Salt Lake Center
03:55PM 44.0097 -109.5711 88° East 507 583 35,000  Level Salt Lake Center
03:56PM 44.0108 -109.3714 89° East 505 581 35,000  Level Salt Lake Center
03:57PM 44.0142 -109.1842 89° East 506 582 35,000  Level Salt Lake Center
03:58PM 44.0161 -108.9961 89° East 510 587 35,000  Level Salt Lake Center
03:59PM 44.0183 -108.7764 89° East 511 588 35,000  Level Salt Lake Center
04:00PM 44.0200 -108.5872 89° East 513 590 35,000  Level Salt Lake Center
04:01PM 44.0203 -108.3703 90° East 507 583 35,000  Level Salt Lake Center
04:02PM 44.0214 -108.1861 89° East 502 578 35,000  Level Salt Lake Center
04:03PM 44.0211 -107.9706 90° East 503 579 35,000  Level Salt Lake Center
04:04PM 44.0214 -107.7861 90° East 503 579 35,000  Level Salt Lake Center
04:05PM 44.0214 -107.5983 90° East 509 586 35,000  Level Salt Lake Center
04:06PM 44.0203 -107.3794 90° East 510 587 35,000  Level Salt Lake Center
04:07PM 44.0206 -107.1928 90° East 506 582 35,000  Level Denver Center
04:08PM 44.0192 -106.9744 90° East 508 585 35,000  Level Denver Center
04:09PM 44.0178 -106.7739 90° East 502 578 35,000  Level Denver Center
04:10PM 44.0161 -106.5872 91° East 505 581 35,000  Level Denver Center
04:11PM 44.0131 -106.4025 91° East 500 575 35,000  Level Denver Center
04:12PM 44.0122 -106.1861 90° East 502 578 35,000  Level Denver Center
04:13PM 44.0100 -106.0006 91° East 503 579 35,000  Level Denver Center
04:14PM 44.0044 -105.7864 92° East 498 573 35,000  Level Denver Center
04:15PM 44.0025 -105.6008 91° East 500 575 35,000  Level Denver Center
04:17PM 43.9969 -105.3853 92° East 500 575 35,000  Level Denver Center
04:18PM 43.9931 -105.2003 92° East 500 575 35,000  Level Denver Center
04:19PM 43.9881 -104.9853 92° East 498 573 35,000  Level Denver Center
04:20PM 43.9833 -104.8003 92° East 499 574 35,000  Level Denver Center
04:21PM 43.9781 -104.6136 92° East 503 579 35,000  Level Denver Center
04:22PM 43.9717 -104.3975 92° East 502 578 35,000  Level Denver Center
04:23PM 43.9661 -104.2139 92° East 498 573 35,000  Level Denver Center
04:24PM 43.9581 -103.9969 93° East 504 580 35,000  Level Denver Center
04:26PM 43.9458 -103.6286 93° East 497 572 35,000  Level Minneapolis Center
04:26PM 43.9431 -103.5642 93° East 504 580 35,000  Level Denver Center
04:27PM 43.9367 -103.3800 93° East 501 577 35,000  Level Denver Center
04:28PM 43.9272 -103.1642 93° East 500 575 35,000  Level Denver Center
04:29PM 43.9194 -102.9783 93° East 502 578 35,000  Level Denver Center
04:30PM 43.9131 -102.7806 92° East 499 574 35,000  Level Denver Center
04:31PM 43.9028 -102.5878 94° East 500 575 35,000  Level Denver Center
04:32PM 43.8900 -102.3908 95° East 507 583 35,000  Level Denver Center
04:33PM 43.8800 -102.1964 94° East 509 586 35,000  Level Denver Center
04:34PM 43.8669 -101.9631 94° East 508 585 35,000  Level Denver Center
04:35PM 43.8558 -101.7681 94° East 508 585 35,000  Level Denver Center
04:36PM 43.8503 -101.5794 92° East 500 575 35,000  Level Denver Center
04:37PM 43.8392 -101.3839 94° East 509 586 35,000  Level Denver Center
04:38PM 43.8314 -101.2317 94° East 505 581 35,000  Level Minneapolis Center
04:39PM 43.8192 -101.0350 95° East 510 587 35,000  Level Minneapolis Center
04:40PM 43.8081 -100.8431 95° East 506 582 35,000  Level Minneapolis Center
04:41PM 43.7933 -100.6106 95° East 507 583 35,000  Level Minneapolis Center
04:42PM 43.7814 -100.4178 95° East 506 582 35,000  Level Minneapolis Center
04:43PM 43.7678 -100.2250 96° East 507 583 35,000  Level Minneapolis Center
04:44PM 43.7544 -100.0317 95° East 507 583 35,000  Level Minneapolis Center
04:45PM 43.7414 -99.8422 95° East 502 578 35,000  Level Minneapolis Center
04:46PM 43.7278 -99.6486 95° East 504 580 35,000  Level Minneapolis Center
04:47PM 43.7108 -99.4197 96° East 503 579 35,000  Level Minneapolis Center
04:48PM 43.6978 -99.2294 95° East 500 575 35,000  Level Minneapolis Center
04:49PM 43.6822 -99.0386 96° East 501 577 35,000  Level Minneapolis Center
04:51PM 43.6686 -98.8489 96° East 500 575 35,000  Level Minneapolis Center
04:52PM 43.6517 -98.6397 96° East 500 575 35,000  Level Minneapolis Center
04:53PM 43.6364 -98.4506 96° East 499 574 35,000  Level Minneapolis Center
04:54PM 43.6203 -98.2622 97° East 497 572 35,000  Level Minneapolis Center
04:55PM 43.6036 -98.0744 97° East 496 571 35,000  Level Minneapolis Center
04:56PM 43.5817 -97.8103 96° East 497 572 35,000  Level Minneapolis Center
04:57PM 43.5639 -97.6225 97° East 497 572 35,000  Level Minneapolis Center
04:58PM 43.5464 -97.4322 97° East 502 578 35,000  Level Minneapolis Center
04:59PM 43.5286 -97.2436 97° East 500 575 35,000  Level Minneapolis Center
05:00PM 43.5114 -97.0536 97° East 501 577 35,000  Level Minneapolis Center
05:01PM 43.4900 -96.8294 97° East 497 572 35,000  Level Minneapolis Center
05:02PM 43.4725 -96.6433 97° East 495 570 35,000  Level Minneapolis Center
05:03PM 43.4531 -96.4558 98° East 498 573 35,000  Level Minneapolis Center
05:04PM 43.4344 -96.2675 98° East 500 575 35,000  Level Minneapolis Center
05:05PM 43.4153 -96.0783 98° East 502 578 35,000  Level Minneapolis Center
05:06PM 43.3911 -95.8519 98° East 503 579 35,000  Level Minneapolis Center
05:07PM 43.3708 -95.6642 98° East 500 575 35,000  Level Minneapolis Center
05:08PM 43.3503 -95.4750 98° East 503 579 35,000  Level Minneapolis Center
05:09PM 43.3300 -95.2864 98° East 503 579 35,000  Level Minneapolis Center
05:11PM 43.3086 -95.0972 99° East 503 579 35,000  Level Minneapolis Center
05:12PM 43.2836 -94.8683 98° East 507 583 35,000  Level Minneapolis Center
05:13PM 43.2514 -94.6053 99° East 502 578 35,000  Level Minneapolis Center
05:14PM 43.2344 -94.4528 99° East 505 581 35,000  Level Minneapolis Center
05:15PM 43.2089 -94.2400 99° East 506 582 35,000  Level Minneapolis Center
05:16PM 43.1800 -94.0147 100° East 505 581 35,000  Level Minneapolis Center
05:17PM 43.1561 -93.8275 100° East 506 582 35,000  Level Minneapolis Center
05:18PM 43.1319 -93.6406 100° East 504 580 35,000  Level Minneapolis Center
05:19PM 43.1094 -93.4517 99° East 506 582 35,000  Level Minneapolis Center
05:20PM 43.0878 -93.2650 99° East 503 579 35,000  Level Minneapolis Center
05:21PM 43.0769 -93.0767 94° East 501 577 35,000  Level Minneapolis Center
05:22PM 43.0617 -92.8508 95° East 502 578 35,000  Level Minneapolis Center
05:23PM 43.0492 -92.6611 95° East 505 581 35,000  Level Minneapolis Center
05:24PM 43.0358 -92.4686 95° East 510 587 35,000 -60 Level Minneapolis Center
05:25PM 43.0211 -92.2808 96° East 504 580 34,900 -600 Descending Minneapolis Center
05:26PM 43.0075 -92.0914 96° East 504 580 33,800 -1,080 Descending Minneapolis Center
05:27PM 42.9914 -91.8631 95° East 504 580 32,700 -1,020 Descending Minneapolis Center
05:28PM 42.9767 -91.6661 96° East 513 590 31,700 -1,020 Descending Minneapolis Center
05:29PM 42.9608 -91.4669 96° East 519 597 30,700 -1,020 Descending Minneapolis Center
05:30PM 42.9453 -91.2864 97° East 483 556 29,700 -1,020 Descending Minneapolis Center
05:31PM 42.9267 -91.1133 98° East 466 536 28,700 -1,020 Descending Minneapolis Center
05:32PM 42.8511 -91.0094 135° Southeast 490 564 27,900 -960 Descending Chicago Center
05:33PM 42.7467 -90.8939 141° Southeast 485 558 27,000 -480 Descending Chicago Center
05:34PM 42.6436 -90.7828 142° Southeast 477 549 27,000  Level Chicago Center
05:35PM 42.5822 -90.6028 115° Southeast 451 519 27,000  Level Chicago Center
05:36PM 42.5794 -90.4328 91° East 455 524 27,000 -360 Level Chicago Center
05:37PM 42.5786 -90.2636 90° East 452 520 26,300 -780 Descending Chicago Center
05:38PM 42.5756 -90.0975 91° East 446 513 25,400 -1,020 Descending Chicago Center
05:40PM 42.5725 -89.9092 91° East 443 510 24,200 -720 Descending Chicago Center
05:41PM 42.5703 -89.7483 91° East 432 497 24,000 -480 Descending Chicago Center
05:42PM 42.5669 -89.5883 92° East 428 493 23,300 -1,320 Descending Chicago Center
05:43PM 42.5633 -89.4008 91° East 427 491 21,300 -2,160 Descending Chicago Center
05:44PM 42.5603 -89.2464 91° East 417 480 18,800 -2,340 Descending Chicago Center
05:45PM 42.5522 -89.0975 94° East 403 464 16,500 -2,280 Descending Chicago Center
05:46PM 42.5147 -88.9611 110° East 392 451 14,200 -2,280 Descending Chicago Center
05:47PM 42.4747 -88.8269 112° Southeast 387 445 11,900 -1,860 Descending Chicago Center
05:48PM 42.4317 -88.6861 112° Southeast 355 409 10,400 -1,260 Descending Chicago Center
05:49PM 42.3989 -88.5800 113° Southeast 316 364 9,400 -720 Descending Chicago Center
05:50PM 42.3633 -88.4761 115° Southeast 309 356 9,000 -300 Descending Chicago Center
05:51PM 42.3211 -88.3692 118° Southeast 303 349 8,800 -780 Descending Chicago Center
05:52PM 42.2881 -88.2831 117° Southeast 275 316 7,500 -1,200 Descending Chicago Center
05:53PM 42.2419 -88.2167 133° Southeast 255 293 6,400 -1,020 Descending Chicago Center
05:54PM 42.1944 -88.1656 141° Southeast 229 264 5,400 -720 Descending Chicago Center
05:55PM 42.1561 -88.1194 138° Southeast 196 226 4,900 -840 Descending Chicago Center
05:56PM 42.1167 -88.0667 135° Southeast 186 214 3,800 -1,080 Descending Chicago TRACON
05:57PM 42.0667 -88.0167 143° Southeast 178 205 2,800 -1,020 Descending Chicago TRACON